sensor_id;sensor_type;location;lat;lon;timestamp;P1;durP1;ratioP1;P2;durP2;ratioP2
23470;SDS011;11908;50.806;4.424;2023-09-07T00:02:16;7.05;;;6.03;;
23470;SDS011;11908;50.806;4.424;2023-09-07T00:04:42;9.73;;;5.57;;
23470;SDS011;11908;50.806;4.424;2023-09-07T00:07:08;7.50;;;6.00;;
23470;SDS011;11908;50.806;4.424;2023-09-07T00:09:34;9.05;;;5.75;;
23470;SDS011;11908;50.806;4.424;2023-09-07T00:12:00;9.68;;;5.85;;
23470;SDS011;11908;50.806;4.424;2023-09-07T00:14:25;8.82;;;5.45;;
23470;SDS011;11908;50.806;4.424;2023-09-07T00:16:51;14.75;;;6.13;;
23470;SDS011;11908;50.806;4.424;2023-09-07T00:19:17;11.20;;;6.03;;
23470;SDS011;11908;50.806;4.424;2023-09-07T00:21:42;8.85;;;5.38;;
23470;SDS011;11908;50.806;4.424;2023-09-07T00:24:08;7.80;;;5.78;;
23470;SDS011;11908;50.806;4.424;2023-09-07T00:26:35;8.02;;;6.03;;
23470;SDS011;11908;50.806;4.424;2023-09-07T00:29:02;7.95;;;5.63;;
23470;SDS011;11908;50.806;4.424;2023-09-07T00:31:27;14.30;;;6.18;;
23470;SDS011;11908;50.806;4.424;2023-09-07T00:33:53;9.10;;;6.05;;
23470;SDS011;11908;50.806;4.424;2023-09-07T00:36:18;10.07;;;5.82;;
23470;SDS011;11908;50.806;4.424;2023-09-07T00:38:44;10.32;;;5.97;;
23470;SDS011;11908;50.806;4.424;2023-09-07T00:41:11;11.05;;;6.03;;
23470;SDS011;11908;50.806;4.424;2023-09-07T00:43:38;9.25;;;5.82;;
23470;SDS011;11908;50.806;4.424;2023-09-07T00:46:05;8.60;;;5.65;;
23470;SDS011;11908;50.806;4.424;2023-09-07T00:48:31;8.85;;;6.20;;
23470;SDS011;11908;50.806;4.424;2023-09-07T00:50:58;8.48;;;5.65;;
23470;SDS011;11908;50.806;4.424;2023-09-07T00:53:25;10.20;;;5.43;;
23470;SDS011;11908;50.806;4.424;2023-09-07T00:55:52;10.10;;;5.60;;
23470;SDS011;11908;50.806;4.424;2023-09-07T00:58:20;11.35;;;5.95;;
23470;SDS011;11908;50.806;4.424;2023-09-07T01:00:46;13.35;;;5.40;;
23470;SDS011;11908;50.806;4.424;2023-09-07T01:03:12;9.85;;;5.38;;
23470;SDS011;11908;50.806;4.424;2023-09-07T01:05:41;8.57;;;5.75;;
23470;SDS011;11908;50.806;4.424;2023-09-07T01:08:22;11.13;;;5.30;;
23470;SDS011;11908;50.806;4.424;2023-09-07T01:10:50;8.10;;;5.10;;
23470;SDS011;11908;50.806;4.424;2023-09-07T01:13:15;9.65;;;5.65;;
23470;SDS011;11908;50.806;4.424;2023-09-07T01:15:41;9.77;;;6.60;;
23470;SDS011;11908;50.806;4.424;2023-09-07T01:18:07;7.60;;;5.13;;
23470;SDS011;11908;50.806;4.424;2023-09-07T01:20:34;7.55;;;5.50;;
23470;SDS011;11908;50.806;4.424;2023-09-07T01:23:01;12.20;;;6.30;;
23470;SDS011;11908;50.806;4.424;2023-09-07T01:25:28;10.02;;;5.72;;
23470;SDS011;11908;50.806;4.424;2023-09-07T01:27:54;6.47;;;5.50;;
23470;SDS011;11908;50.806;4.424;2023-09-07T01:30:19;10.25;;;6.03;;
23470;SDS011;11908;50.806;4.424;2023-09-07T01:32:46;12.27;;;5.57;;
23470;SDS011;11908;50.806;4.424;2023-09-07T01:35:14;7.80;;;6.00;;
23470;SDS011;11908;50.806;4.424;2023-09-07T01:37:41;6.70;;;5.53;;
23470;SDS011;11908;50.806;4.424;2023-09-07T01:40:07;11.00;;;6.10;;
23470;SDS011;11908;50.806;4.424;2023-09-07T01:42:34;11.30;;;6.28;;
23470;SDS011;11908;50.806;4.424;2023-09-07T01:44:59;8.55;;;5.90;;
23470;SDS011;11908;50.806;4.424;2023-09-07T01:47:25;7.53;;;5.80;;
23470;SDS011;11908;50.806;4.424;2023-09-07T01:49:51;8.88;;;5.78;;
23470;SDS011;11908;50.806;4.424;2023-09-07T01:52:16;9.82;;;5.85;;
23470;SDS011;11908;50.806;4.424;2023-09-07T01:54:42;6.57;;;5.93;;
23470;SDS011;11908;50.806;4.424;2023-09-07T01:57:07;10.02;;;5.47;;
23470;SDS011;11908;50.806;4.424;2023-09-07T01:59:33;9.43;;;6.50;;
23470;SDS011;11908;50.806;4.424;2023-09-07T02:01:59;8.52;;;6.18;;
23470;SDS011;11908;50.806;4.424;2023-09-07T02:04:24;7.43;;;6.05;;
23470;SDS011;11908;50.806;4.424;2023-09-07T02:06:50;9.85;;;5.72;;
23470;SDS011;11908;50.806;4.424;2023-09-07T02:09:15;8.45;;;5.63;;
23470;SDS011;11908;50.806;4.424;2023-09-07T02:11:41;9.07;;;5.93;;
23470;SDS011;11908;50.806;4.424;2023-09-07T02:14:07;6.38;;;5.60;;
23470;SDS011;11908;50.806;4.424;2023-09-07T02:16:33;8.70;;;5.85;;
23470;SDS011;11908;50.806;4.424;2023-09-07T02:19:03;10.15;;;6.32;;
23470;SDS011;11908;50.806;4.424;2023-09-07T02:21:30;8.40;;;5.53;;
23470;SDS011;11908;50.806;4.424;2023-09-07T02:23:56;7.57;;;5.57;;
23470;SDS011;11908;50.806;4.424;2023-09-07T02:26:21;7.68;;;4.88;;
23470;SDS011;11908;50.806;4.424;2023-09-07T02:28:47;12.40;;;6.20;;
23470;SDS011;11908;50.806;4.424;2023-09-07T02:31:12;8.27;;;5.72;;
23470;SDS011;11908;50.806;4.424;2023-09-07T02:33:38;10.43;;;5.90;;
23470;SDS011;11908;50.806;4.424;2023-09-07T02:36:04;7.15;;;5.45;;
23470;SDS011;11908;50.806;4.424;2023-09-07T02:38:29;11.32;;;6.18;;
23470;SDS011;11908;50.806;4.424;2023-09-07T02:40:55;9.73;;;5.65;;
23470;SDS011;11908;50.806;4.424;2023-09-07T02:43:22;6.32;;;5.60;;
23470;SDS011;11908;50.806;4.424;2023-09-07T02:45:48;12.80;;;6.38;;
23470;SDS011;11908;50.806;4.424;2023-09-07T02:48:14;6.65;;;5.88;;
23470;SDS011;11908;50.806;4.424;2023-09-07T02:50:40;8.10;;;5.45;;
23470;SDS011;11908;50.806;4.424;2023-09-07T02:53:07;10.13;;;5.85;;
23470;SDS011;11908;50.806;4.424;2023-09-07T02:55:33;9.98;;;5.57;;
23470;SDS011;11908;50.806;4.424;2023-09-07T02:58:02;11.73;;;5.72;;
23470;SDS011;11908;50.806;4.424;2023-09-07T03:00:28;6.40;;;5.78;;
23470;SDS011;11908;50.806;4.424;2023-09-07T03:02:54;11.98;;;5.55;;
23470;SDS011;11908;50.806;4.424;2023-09-07T03:05:19;7.32;;;5.88;;
23470;SDS011;11908;50.806;4.424;2023-09-07T03:07:45;6.60;;;5.53;;
23470;SDS011;11908;50.806;4.424;2023-09-07T03:10:12;7.90;;;5.57;;
23470;SDS011;11908;50.806;4.424;2023-09-07T03:12:38;8.57;;;5.82;;
23470;SDS011;11908;50.806;4.424;2023-09-07T03:15:04;7.07;;;5.55;;
23470;SDS011;11908;50.806;4.424;2023-09-07T03:17:31;11.00;;;6.03;;
23470;SDS011;11908;50.806;4.424;2023-09-07T03:19:56;10.68;;;6.80;;
23470;SDS011;11908;50.806;4.424;2023-09-07T03:22:22;8.55;;;6.03;;
23470;SDS011;11908;50.806;4.424;2023-09-07T03:24:51;9.20;;;5.65;;
23470;SDS011;11908;50.806;4.424;2023-09-07T03:27:17;8.13;;;6.03;;
23470;SDS011;11908;50.806;4.424;2023-09-07T03:29:46;13.07;;;5.88;;
23470;SDS011;11908;50.806;4.424;2023-09-07T03:32:11;9.45;;;6.18;;
23470;SDS011;11908;50.806;4.424;2023-09-07T03:34:37;8.90;;;6.13;;
23470;SDS011;11908;50.806;4.424;2023-09-07T03:37:03;8.82;;;6.57;;
23470;SDS011;11908;50.806;4.424;2023-09-07T03:39:31;8.60;;;5.88;;
23470;SDS011;11908;50.806;4.424;2023-09-07T03:41:57;6.85;;;5.75;;
23470;SDS011;11908;50.806;4.424;2023-09-07T03:44:22;10.25;;;6.00;;
23470;SDS011;11908;50.806;4.424;2023-09-07T03:46:48;6.88;;;5.75;;
23470;SDS011;11908;50.806;4.424;2023-09-07T03:49:13;7.47;;;5.88;;
23470;SDS011;11908;50.806;4.424;2023-09-07T03:51:39;8.15;;;5.75;;
23470;SDS011;11908;50.806;4.424;2023-09-07T03:54:05;7.00;;;6.07;;
23470;SDS011;11908;50.806;4.424;2023-09-07T03:56:31;7.13;;;6.00;;
23470;SDS011;11908;50.806;4.424;2023-09-07T03:58:56;8.68;;;6.22;;
23470;SDS011;11908;50.806;4.424;2023-09-07T04:01:22;8.70;;;6.35;;
23470;SDS011;11908;50.806;4.424;2023-09-07T04:03:48;7.28;;;5.63;;
23470;SDS011;11908;50.806;4.424;2023-09-07T04:06:15;6.90;;;5.90;;
23470;SDS011;11908;50.806;4.424;2023-09-07T04:08:40;10.60;;;5.93;;
23470;SDS011;11908;50.806;4.424;2023-09-07T04:11:06;9.00;;;6.75;;
23470;SDS011;11908;50.806;4.424;2023-09-07T04:13:32;10.48;;;5.80;;
23470;SDS011;11908;50.806;4.424;2023-09-07T04:15:57;8.68;;;5.72;;
23470;SDS011;11908;50.806;4.424;2023-09-07T04:18:23;13.55;;;6.25;;
23470;SDS011;11908;50.806;4.424;2023-09-07T04:20:49;8.18;;;5.93;;
23470;SDS011;11908;50.806;4.424;2023-09-07T04:23:14;7.35;;;5.75;;
23470;SDS011;11908;50.806;4.424;2023-09-07T04:25:40;8.90;;;6.53;;
23470;SDS011;11908;50.806;4.424;2023-09-07T04:28:06;8.90;;;5.95;;
23470;SDS011;11908;50.806;4.424;2023-09-07T04:30:33;11.32;;;6.65;;
23470;SDS011;11908;50.806;4.424;2023-09-07T04:33:07;9.15;;;6.60;;
23470;SDS011;11908;50.806;4.424;2023-09-07T04:35:33;8.85;;;5.88;;
23470;SDS011;11908;50.806;4.424;2023-09-07T04:37:59;11.40;;;5.78;;
23470;SDS011;11908;50.806;4.424;2023-09-07T04:40:25;9.75;;;5.82;;
23470;SDS011;11908;50.806;4.424;2023-09-07T04:42:50;7.85;;;5.82;;
23470;SDS011;11908;50.806;4.424;2023-09-07T04:45:16;15.00;;;6.53;;
23470;SDS011;11908;50.806;4.424;2023-09-07T04:47:42;12.13;;;5.90;;
23470;SDS011;11908;50.806;4.424;2023-09-07T04:50:08;8.30;;;5.65;;
23470;SDS011;11908;50.806;4.424;2023-09-07T04:52:34;10.45;;;6.00;;
23470;SDS011;11908;50.806;4.424;2023-09-07T04:55:00;13.80;;;6.82;;
23470;SDS011;11908;50.806;4.424;2023-09-07T04:57:26;9.00;;;6.28;;
23470;SDS011;11908;50.806;4.424;2023-09-07T04:59:52;8.05;;;6.50;;
23470;SDS011;11908;50.806;4.424;2023-09-07T05:02:17;7.78;;;6.15;;
23470;SDS011;11908;50.806;4.424;2023-09-07T05:04:43;8.77;;;6.50;;
23470;SDS011;11908;50.806;4.424;2023-09-07T05:07:09;13.40;;;6.20;;
23470;SDS011;11908;50.806;4.424;2023-09-07T05:09:35;12.77;;;6.10;;
23470;SDS011;11908;50.806;4.424;2023-09-07T05:12:01;8.52;;;6.28;;
23470;SDS011;11908;50.806;4.424;2023-09-07T05:14:27;9.82;;;6.45;;
23470;SDS011;11908;50.806;4.424;2023-09-07T05:16:54;8.93;;;6.22;;
23470;SDS011;11908;50.806;4.424;2023-09-07T05:19:21;10.88;;;6.40;;
23470;SDS011;11908;50.806;4.424;2023-09-07T05:21:47;11.02;;;6.50;;
23470;SDS011;11908;50.806;4.424;2023-09-07T05:24:13;12.35;;;6.68;;
23470;SDS011;11908;50.806;4.424;2023-09-07T05:26:40;10.40;;;6.50;;
23470;SDS011;11908;50.806;4.424;2023-09-07T05:29:06;10.77;;;6.22;;
23470;SDS011;11908;50.806;4.424;2023-09-07T05:31:32;12.15;;;6.53;;
23470;SDS011;11908;50.806;4.424;2023-09-07T05:33:57;9.27;;;6.63;;
23470;SDS011;11908;50.806;4.424;2023-09-07T05:36:23;15.38;;;6.55;;
23470;SDS011;11908;50.806;4.424;2023-09-07T05:38:49;15.07;;;7.30;;
23470;SDS011;11908;50.806;4.424;2023-09-07T05:41:14;15.23;;;6.65;;
23470;SDS011;11908;50.806;4.424;2023-09-07T05:43:40;11.32;;;6.90;;
23470;SDS011;11908;50.806;4.424;2023-09-07T05:46:06;10.85;;;6.65;;
23470;SDS011;11908;50.806;4.424;2023-09-07T05:48:31;13.45;;;6.65;;
23470;SDS011;11908;50.806;4.424;2023-09-07T05:50:57;9.15;;;6.65;;
23470;SDS011;11908;50.806;4.424;2023-09-07T05:53:23;18.10;;;6.80;;
23470;SDS011;11908;50.806;4.424;2023-09-07T05:55:49;14.68;;;6.20;;
23470;SDS011;11908;50.806;4.424;2023-09-07T05:58:15;14.20;;;6.97;;
23470;SDS011;11908;50.806;4.424;2023-09-07T06:00:41;9.48;;;5.88;;
23470;SDS011;11908;50.806;4.424;2023-09-07T06:03:07;10.35;;;6.70;;
23470;SDS011;11908;50.806;4.424;2023-09-07T06:05:34;11.80;;;5.97;;
23470;SDS011;11908;50.806;4.424;2023-09-07T06:08:01;9.13;;;6.25;;
23470;SDS011;11908;50.806;4.424;2023-09-07T06:10:30;12.63;;;6.03;;
23470;SDS011;11908;50.806;4.424;2023-09-07T06:12:56;9.93;;;5.90;;
23470;SDS011;11908;50.806;4.424;2023-09-07T06:15:22;13.05;;;6.95;;
23470;SDS011;11908;50.806;4.424;2023-09-07T06:17:47;11.57;;;6.22;;
23470;SDS011;11908;50.806;4.424;2023-09-07T06:20:14;11.57;;;6.38;;
23470;SDS011;11908;50.806;4.424;2023-09-07T06:22:40;16.33;;;7.13;;
23470;SDS011;11908;50.806;4.424;2023-09-07T06:25:06;14.18;;;7.57;;
23470;SDS011;11908;50.806;4.424;2023-09-07T06:27:32;14.02;;;7.47;;
23470;SDS011;11908;50.806;4.424;2023-09-07T06:29:58;9.20;;;6.97;;
23470;SDS011;11908;50.806;4.424;2023-09-07T06:32:23;14.15;;;6.45;;
23470;SDS011;11908;50.806;4.424;2023-09-07T06:34:49;11.90;;;6.50;;
23470;SDS011;11908;50.806;4.424;2023-09-07T06:37:15;11.55;;;6.38;;
23470;SDS011;11908;50.806;4.424;2023-09-07T06:39:40;7.93;;;6.50;;
23470;SDS011;11908;50.806;4.424;2023-09-07T06:42:09;10.40;;;6.53;;
23470;SDS011;11908;50.806;4.424;2023-09-07T06:44:35;9.98;;;6.18;;
23470;SDS011;11908;50.806;4.424;2023-09-07T06:47:01;9.00;;;6.28;;
23470;SDS011;11908;50.806;4.424;2023-09-07T06:49:27;10.38;;;6.25;;
23470;SDS011;11908;50.806;4.424;2023-09-07T06:51:54;12.23;;;6.43;;
23470;SDS011;11908;50.806;4.424;2023-09-07T06:54:21;8.13;;;6.05;;
23470;SDS011;11908;50.806;4.424;2023-09-07T06:56:47;13.05;;;6.90;;
23470;SDS011;11908;50.806;4.424;2023-09-07T06:59:12;9.15;;;6.10;;
23470;SDS011;11908;50.806;4.424;2023-09-07T07:01:39;14.15;;;7.15;;
23470;SDS011;11908;50.806;4.424;2023-09-07T07:04:04;7.97;;;5.95;;
23470;SDS011;11908;50.806;4.424;2023-09-07T07:06:30;10.13;;;5.65;;
23470;SDS011;11908;50.806;4.424;2023-09-07T07:08:56;12.25;;;6.45;;
23470;SDS011;11908;50.806;4.424;2023-09-07T07:11:21;12.23;;;6.20;;
23470;SDS011;11908;50.806;4.424;2023-09-07T07:13:47;8.88;;;5.40;;
23470;SDS011;11908;50.806;4.424;2023-09-07T07:16:12;11.32;;;5.72;;
23470;SDS011;11908;50.806;4.424;2023-09-07T07:18:38;10.98;;;6.10;;
23470;SDS011;11908;50.806;4.424;2023-09-07T07:21:04;8.30;;;5.40;;
23470;SDS011;11908;50.806;4.424;2023-09-07T07:23:30;7.63;;;5.00;;
23470;SDS011;11908;50.806;4.424;2023-09-07T07:25:56;9.77;;;5.65;;
23470;SDS011;11908;50.806;4.424;2023-09-07T07:28:22;6.68;;;5.72;;
23470;SDS011;11908;50.806;4.424;2023-09-07T07:30:48;11.80;;;5.30;;
23470;SDS011;11908;50.806;4.424;2023-09-07T07:33:13;8.48;;;5.43;;
23470;SDS011;11908;50.806;4.424;2023-09-07T07:35:39;6.13;;;5.18;;
23470;SDS011;11908;50.806;4.424;2023-09-07T07:38:05;5.38;;;4.85;;
23470;SDS011;11908;50.806;4.424;2023-09-07T07:40:32;8.45;;;5.00;;
23470;SDS011;11908;50.806;4.424;2023-09-07T07:42:58;8.65;;;4.70;;
23470;SDS011;11908;50.806;4.424;2023-09-07T07:45:24;6.97;;;4.75;;
23470;SDS011;11908;50.806;4.424;2023-09-07T07:47:50;10.80;;;4.93;;
23470;SDS011;11908;50.806;4.424;2023-09-07T07:50:18;7.70;;;4.47;;
23470;SDS011;11908;50.806;4.424;2023-09-07T07:52:44;10.48;;;4.60;;
23470;SDS011;11908;50.806;4.424;2023-09-07T07:55:10;8.57;;;4.13;;
23470;SDS011;11908;50.806;4.424;2023-09-07T07:57:37;4.82;;;3.63;;
23470;SDS011;11908;50.806;4.424;2023-09-07T08:00:06;7.72;;;3.60;;
23470;SDS011;11908;50.806;4.424;2023-09-07T08:02:32;6.35;;;3.60;;
23470;SDS011;11908;50.806;4.424;2023-09-07T08:04:58;7.63;;;3.67;;
23470;SDS011;11908;50.806;4.424;2023-09-07T08:07:24;6.90;;;3.28;;
23470;SDS011;11908;50.806;4.424;2023-09-07T08:09:50;3.83;;;3.30;;
23470;SDS011;11908;50.806;4.424;2023-09-07T08:12:16;5.13;;;3.53;;
23470;SDS011;11908;50.806;4.424;2023-09-07T08:14:42;4.97;;;3.13;;
23470;SDS011;11908;50.806;4.424;2023-09-07T08:17:08;4.53;;;3.20;;
23470;SDS011;11908;50.806;4.424;2023-09-07T08:19:33;5.43;;;3.00;;
23470;SDS011;11908;50.806;4.424;2023-09-07T08:21:59;5.70;;;3.05;;
23470;SDS011;11908;50.806;4.424;2023-09-07T08:24:28;4.57;;;3.08;;
23470;SDS011;11908;50.806;4.424;2023-09-07T08:26:54;5.38;;;3.08;;
23470;SDS011;11908;50.806;4.424;2023-09-07T08:29:20;6.78;;;3.05;;
23470;SDS011;11908;50.806;4.424;2023-09-07T08:31:50;4.15;;;2.72;;
23470;SDS011;11908;50.806;4.424;2023-09-07T08:34:15;7.40;;;2.83;;
23470;SDS011;11908;50.806;4.424;2023-09-07T08:36:41;4.40;;;2.72;;
23470;SDS011;11908;50.806;4.424;2023-09-07T08:39:07;5.05;;;3.00;;
23470;SDS011;11908;50.806;4.424;2023-09-07T08:41:44;6.40;;;3.05;;
23470;SDS011;11908;50.806;4.424;2023-09-07T08:44:10;3.88;;;2.88;;
23470;SDS011;11908;50.806;4.424;2023-09-07T08:46:36;4.95;;;3.00;;
23470;SDS011;11908;50.806;4.424;2023-09-07T08:49:02;4.53;;;2.92;;
23470;SDS011;11908;50.806;4.424;2023-09-07T08:51:30;8.90;;;3.13;;
23470;SDS011;11908;50.806;4.424;2023-09-07T08:53:56;4.47;;;3.08;;
23470;SDS011;11908;50.806;4.424;2023-09-07T08:56:23;10.68;;;3.20;;
23470;SDS011;11908;50.806;4.424;2023-09-07T08:58:49;5.85;;;2.75;;
23470;SDS011;11908;50.806;4.424;2023-09-07T09:01:16;6.88;;;2.72;;
23470;SDS011;11908;50.806;4.424;2023-09-07T09:03:46;5.38;;;3.25;;
23470;SDS011;11908;50.806;4.424;2023-09-07T09:06:13;6.00;;;3.05;;
23470;SDS011;11908;50.806;4.424;2023-09-07T09:08:48;8.85;;;3.45;;
23470;SDS011;11908;50.806;4.424;2023-09-07T09:11:19;4.15;;;3.10;;
23470;SDS011;11908;50.806;4.424;2023-09-07T09:13:46;3.60;;;3.08;;
23470;SDS011;11908;50.806;4.424;2023-09-07T09:16:12;9.63;;;3.08;;
23470;SDS011;11908;50.806;4.424;2023-09-07T09:18:47;6.38;;;3.25;;
23470;SDS011;11908;50.806;4.424;2023-09-07T09:21:14;7.55;;;3.30;;
23470;SDS011;11908;50.806;4.424;2023-09-07T09:23:41;4.32;;;2.95;;
23470;SDS011;11908;50.806;4.424;2023-09-07T09:26:06;5.18;;;3.35;;
23470;SDS011;11908;50.806;4.424;2023-09-07T09:28:32;5.35;;;2.80;;
23470;SDS011;11908;50.806;4.424;2023-09-07T09:30:59;6.57;;;3.38;;
23470;SDS011;11908;50.806;4.424;2023-09-07T09:33:26;15.73;;;3.90;;
23470;SDS011;11908;50.806;4.424;2023-09-07T09:35:53;9.75;;;3.75;;
23470;SDS011;11908;50.806;4.424;2023-09-07T09:38:20;5.88;;;3.47;;
23470;SDS011;11908;50.806;4.424;2023-09-07T09:40:45;8.25;;;3.30;;
23470;SDS011;11908;50.806;4.424;2023-09-07T09:43:12;5.07;;;2.92;;
23470;SDS011;11908;50.806;4.424;2023-09-07T09:45:38;6.38;;;2.92;;
23470;SDS011;11908;50.806;4.424;2023-09-07T09:48:04;6.28;;;3.20;;
23470;SDS011;11908;50.806;4.424;2023-09-07T09:50:31;5.88;;;3.60;;
23470;SDS011;11908;50.806;4.424;2023-09-07T09:52:57;7.05;;;3.38;;
23470;SDS011;11908;50.806;4.424;2023-09-07T09:55:24;3.97;;;3.35;;
23470;SDS011;11908;50.806;4.424;2023-09-07T09:57:50;4.50;;;3.17;;
23470;SDS011;11908;50.806;4.424;2023-09-07T10:00:16;5.45;;;3.22;;
23470;SDS011;11908;50.806;4.424;2023-09-07T10:05:37;7.72;;;3.03;;
23470;SDS011;11908;50.806;4.424;2023-09-07T10:08:08;3.30;;;3.00;;
23470;SDS011;11908;50.806;4.424;2023-09-07T10:10:36;5.07;;;3.50;;
23470;SDS011;11908;50.806;4.424;2023-09-07T10:13:04;5.55;;;2.83;;
23470;SDS011;11908;50.806;4.424;2023-09-07T10:15:30;6.20;;;2.97;;
23470;SDS011;11908;50.806;4.424;2023-09-07T10:18:03;8.52;;;3.83;;
23470;SDS011;11908;50.806;4.424;2023-09-07T10:21:14;4.88;;;3.00;;
23470;SDS011;11908;50.806;4.424;2023-09-07T10:23:23;5.05;;;3.28;;
23470;SDS011;11908;50.806;4.424;2023-09-07T10:26:13;6.15;;;2.72;;
23470;SDS011;11908;50.806;4.424;2023-09-07T10:28:43;5.32;;;2.78;;
23470;SDS011;11908;50.806;4.424;2023-09-07T10:33:45;7.32;;;2.72;;
23470;SDS011;11908;50.806;4.424;2023-09-07T10:36:25;6.47;;;2.75;;
23470;SDS011;11908;50.806;4.424;2023-09-07T10:38:51;5.43;;;3.00;;
23470;SDS011;11908;50.806;4.424;2023-09-07T10:41:19;8.27;;;2.90;;
23470;SDS011;11908;50.806;4.424;2023-09-07T10:43:51;7.25;;;2.85;;
23470;SDS011;11908;50.806;4.424;2023-09-07T10:46:22;6.93;;;2.90;;
23470;SDS011;11908;50.806;4.424;2023-09-07T10:48:49;4.88;;;2.47;;
23470;SDS011;11908;50.806;4.424;2023-09-07T10:51:16;9.95;;;2.65;;
23470;SDS011;11908;50.806;4.424;2023-09-07T10:53:42;5.22;;;2.80;;
23470;SDS011;11908;50.806;4.424;2023-09-07T10:56:08;4.53;;;2.65;;
23470;SDS011;11908;50.806;4.424;2023-09-07T10:58:34;9.90;;;2.78;;
23470;SDS011;11908;50.806;4.424;2023-09-07T11:01:04;4.90;;;2.55;;
23470;SDS011;11908;50.806;4.424;2023-09-07T11:03:30;4.07;;;2.40;;
23470;SDS011;11908;50.806;4.424;2023-09-07T11:06:09;11.07;;;3.00;;
23470;SDS011;11908;50.806;4.424;2023-09-07T11:08:38;4.53;;;2.63;;
23470;SDS011;11908;50.806;4.424;2023-09-07T11:11:04;6.63;;;2.40;;
23470;SDS011;11908;50.806;4.424;2023-09-07T11:13:30;3.78;;;2.63;;
23470;SDS011;11908;50.806;4.424;2023-09-07T11:15:57;6.38;;;2.42;;
23470;SDS011;11908;50.806;4.424;2023-09-07T11:18:23;17.10;;;2.75;;
23470;SDS011;11908;50.806;4.424;2023-09-07T11:20:50;5.53;;;2.28;;
23470;SDS011;11908;50.806;4.424;2023-09-07T11:23:17;5.00;;;2.47;;
23470;SDS011;11908;50.806;4.424;2023-09-07T11:25:44;2.97;;;2.22;;
23470;SDS011;11908;50.806;4.424;2023-09-07T11:28:12;4.50;;;2.25;;
23470;SDS011;11908;50.806;4.424;2023-09-07T11:30:48;5.78;;;2.45;;
23470;SDS011;11908;50.806;4.424;2023-09-07T11:33:18;6.18;;;2.40;;
23470;SDS011;11908;50.806;4.424;2023-09-07T11:35:44;7.80;;;2.90;;
23470;SDS011;11908;50.806;4.424;2023-09-07T11:38:12;7.45;;;3.00;;
23470;SDS011;11908;50.806;4.424;2023-09-07T11:40:39;5.97;;;2.42;;
23470;SDS011;11908;50.806;4.424;2023-09-07T11:43:05;5.72;;;2.00;;
23470;SDS011;11908;50.806;4.424;2023-09-07T11:45:30;7.05;;;2.63;;
23470;SDS011;11908;50.806;4.424;2023-09-07T11:47:57;6.65;;;2.35;;
23470;SDS011;11908;50.806;4.424;2023-09-07T11:50:23;6.90;;;2.50;;
23470;SDS011;11908;50.806;4.424;2023-09-07T11:52:55;3.13;;;2.30;;
23470;SDS011;11908;50.806;4.424;2023-09-07T11:55:21;4.95;;;2.35;;
23470;SDS011;11908;50.806;4.424;2023-09-07T11:57:47;6.10;;;2.55;;
23470;SDS011;11908;50.806;4.424;2023-09-07T12:00:13;5.93;;;2.22;;
23470;SDS011;11908;50.806;4.424;2023-09-07T12:02:39;15.60;;;2.72;;
23470;SDS011;11908;50.806;4.424;2023-09-07T12:05:06;4.65;;;2.33;;
23470;SDS011;11908;50.806;4.424;2023-09-07T12:07:34;4.32;;;2.38;;
23470;SDS011;11908;50.806;4.424;2023-09-07T12:10:00;10.90;;;2.63;;
23470;SDS011;11908;50.806;4.424;2023-09-07T12:12:26;2.85;;;2.38;;
23470;SDS011;11908;50.806;4.424;2023-09-07T12:14:52;4.80;;;2.85;;
23470;SDS011;11908;50.806;4.424;2023-09-07T12:17:17;5.60;;;2.67;;
23470;SDS011;11908;50.806;4.424;2023-09-07T12:19:44;5.05;;;2.67;;
23470;SDS011;11908;50.806;4.424;2023-09-07T12:22:11;8.23;;;2.92;;
23470;SDS011;11908;50.806;4.424;2023-09-07T12:24:37;4.60;;;2.72;;
23470;SDS011;11908;50.806;4.424;2023-09-07T12:27:02;5.15;;;2.92;;
23470;SDS011;11908;50.806;4.424;2023-09-07T12:29:28;4.65;;;2.65;;
23470;SDS011;11908;50.806;4.424;2023-09-07T12:31:54;5.43;;;2.80;;
23470;SDS011;11908;50.806;4.424;2023-09-07T12:34:20;6.15;;;2.63;;
23470;SDS011;11908;50.806;4.424;2023-09-07T12:36:46;12.07;;;2.67;;
23470;SDS011;11908;50.806;4.424;2023-09-07T12:39:11;7.20;;;2.28;;
23470;SDS011;11908;50.806;4.424;2023-09-07T12:41:38;10.75;;;3.00;;
23470;SDS011;11908;50.806;4.424;2023-09-07T12:44:04;4.57;;;2.80;;
23470;SDS011;11908;50.806;4.424;2023-09-07T12:46:30;4.85;;;2.60;;
23470;SDS011;11908;50.806;4.424;2023-09-07T12:48:57;10.18;;;2.72;;
23470;SDS011;11908;50.806;4.424;2023-09-07T12:51:22;4.90;;;2.50;;
23470;SDS011;11908;50.806;4.424;2023-09-07T12:53:48;5.40;;;2.97;;
23470;SDS011;11908;50.806;4.424;2023-09-07T12:56:13;4.00;;;2.58;;
23470;SDS011;11908;50.806;4.424;2023-09-07T12:58:40;7.65;;;2.88;;
23470;SDS011;11908;50.806;4.424;2023-09-07T13:01:06;3.58;;;2.83;;
23470;SDS011;11908;50.806;4.424;2023-09-07T13:03:35;4.72;;;3.03;;
23470;SDS011;11908;50.806;4.424;2023-09-07T13:06:02;8.02;;;2.97;;
23470;SDS011;11908;50.806;4.424;2023-09-07T13:08:28;5.95;;;2.70;;
23470;SDS011;11908;50.806;4.424;2023-09-07T13:10:54;7.30;;;3.05;;
23470;SDS011;11908;50.806;4.424;2023-09-07T13:13:20;4.80;;;2.90;;
23470;SDS011;11908;50.806;4.424;2023-09-07T13:15:47;5.55;;;3.25;;
23470;SDS011;11908;50.806;4.424;2023-09-07T13:18:13;8.35;;;3.00;;
23470;SDS011;11908;50.806;4.424;2023-09-07T13:20:38;4.18;;;2.72;;
23470;SDS011;11908;50.806;4.424;2023-09-07T13:23:04;5.90;;;3.20;;
23470;SDS011;11908;50.806;4.424;2023-09-07T13:25:30;4.90;;;3.00;;
23470;SDS011;11908;50.806;4.424;2023-09-07T13:27:56;5.03;;;2.70;;
23470;SDS011;11908;50.806;4.424;2023-09-07T13:30:22;7.20;;;2.85;;
23470;SDS011;11908;50.806;4.424;2023-09-07T13:32:47;5.90;;;3.20;;
23470;SDS011;11908;50.806;4.424;2023-09-07T13:35:15;9.40;;;3.10;;
23470;SDS011;11908;50.806;4.424;2023-09-07T13:37:41;8.27;;;3.30;;
23470;SDS011;11908;50.806;4.424;2023-09-07T13:40:07;8.50;;;3.20;;
23470;SDS011;11908;50.806;4.424;2023-09-07T13:42:33;6.00;;;3.00;;
23470;SDS011;11908;50.806;4.424;2023-09-07T13:44:59;8.15;;;3.10;;
23470;SDS011;11908;50.806;4.424;2023-09-07T13:47:25;8.52;;;3.15;;
23470;SDS011;11908;50.806;4.424;2023-09-07T13:49:50;5.85;;;3.25;;
23470;SDS011;11908;50.806;4.424;2023-09-07T13:52:16;8.82;;;3.13;;
23470;SDS011;11908;50.806;4.424;2023-09-07T13:54:42;7.60;;;3.05;;
23470;SDS011;11908;50.806;4.424;2023-09-07T13:57:07;11.57;;;3.10;;
23470;SDS011;11908;50.806;4.424;2023-09-07T13:59:33;6.47;;;3.17;;
23470;SDS011;11908;50.806;4.424;2023-09-07T14:01:59;9.57;;;2.88;;
23470;SDS011;11908;50.806;4.424;2023-09-07T14:04:26;7.13;;;2.90;;
23470;SDS011;11908;50.806;4.424;2023-09-07T14:06:51;9.30;;;3.00;;
23470;SDS011;11908;50.806;4.424;2023-09-07T14:09:17;3.78;;;2.90;;
23470;SDS011;11908;50.806;4.424;2023-09-07T14:11:43;6.25;;;3.00;;
23470;SDS011;11908;50.806;4.424;2023-09-07T14:14:10;7.18;;;2.90;;
23470;SDS011;11908;50.806;4.424;2023-09-07T14:16:35;5.75;;;2.60;;
23470;SDS011;11908;50.806;4.424;2023-09-07T14:19:01;7.22;;;2.88;;
23470;SDS011;11908;50.806;4.424;2023-09-07T14:21:27;6.93;;;3.40;;
23470;SDS011;11908;50.806;4.424;2023-09-07T14:23:52;5.25;;;2.65;;
23470;SDS011;11908;50.806;4.424;2023-09-07T14:26:18;4.00;;;2.67;;
23470;SDS011;11908;50.806;4.424;2023-09-07T14:28:44;4.35;;;2.75;;
23470;SDS011;11908;50.806;4.424;2023-09-07T14:31:10;9.75;;;3.00;;
23470;SDS011;11908;50.806;4.424;2023-09-07T14:33:37;6.43;;;2.80;;
23470;SDS011;11908;50.806;4.424;2023-09-07T14:36:04;3.85;;;2.25;;
23470;SDS011;11908;50.806;4.424;2023-09-07T14:38:34;11.45;;;3.00;;
23470;SDS011;11908;50.806;4.424;2023-09-07T14:41:06;4.40;;;2.45;;
23470;SDS011;11908;50.806;4.424;2023-09-07T14:43:32;4.30;;;2.72;;
23470;SDS011;11908;50.806;4.424;2023-09-07T14:45:58;6.30;;;3.00;;